METAR AND TAF INFORMATION
METAR FOR KEAT
KEAT 211455Z AUTO 26005KT 10SM CLR 18/06 A2998 RMK AO2 SLP144 T01780056 51004
KEAT 211355Z AUTO 28006KT 10SM CLR 16/06 A2998 RMK AO2 SLP144 T01560056
KEAT 211727Z 2118/2218 26006KT P6SM SKC
FM212100 14007KT P6SM FEW080 FEW200
FM220300 32008KT P6SM SCT250
FM220600 31007KT P6SM BKN250
FM221200 28007KT P6SM BKN250

 AIRPORT MAP

 RUNWAY INFORMATION
Runway 07 Runway length 4460 ft Runway width 150 ft
Runway elevation 1205 ft Runway displaced threshold 0 ft Runway heading 90
Runway 25 Runway length 4460 ft Runway width 150 ft
Runway elevation 1249 ft Runway displaced threshold 0 ft Runway heading 270
Runway 12 Runway length 5700 ft Runway width 150 ft
Runway elevation 1221 ft Runway displaced threshold 0 ft Runway heading 135
Runway 30 Runway length 5700 ft Runway width 150 ft
Runway elevation 1232 ft Runway displaced threshold 800 ft Runway heading 315

 AIRPORT FREQUENCIES
Type ASOS Name ASOS Frequency 119.925 MHZ
Type CNTR Name SEATTLE CN Frequency 126.1 MHZ
Type RDO Name SEATTLE RD Frequency 122.6 MHZ
Type UNIC Name CTAF/UNICO Frequency 123 MHZ

 AIRPORT NEAR NAVIGATION AIDS

-